createdAt,value
2019-04-01T00:00:04.198Z,23.0373
2019-04-01T00:01:07.730Z,23.0507
2019-04-01T00:02:10.186Z,23.0373
2019-04-01T00:03:13.198Z,22.9786
2019-04-01T00:04:16.200Z,22.9652
2019-04-01T00:05:19.206Z,23.0079
2019-04-01T00:06:22.191Z,22.9225
2019-04-01T00:07:25.184Z,22.9225
2019-04-01T00:08:28.199Z,22.9786
2019-04-01T00:09:31.196Z,23.0373
2019-04-01T00:10:34.193Z,22.8958
2019-04-01T00:11:37.198Z,22.9385
2019-04-01T00:12:40.185Z,22.9385
2019-04-01T00:13:43.187Z,22.8824
2019-04-01T00:14:46.192Z,22.9652
2019-04-01T00:15:49.201Z,22.9385
2019-04-01T00:16:52.195Z,22.9091
2019-04-01T00:17:55.204Z,22.9225
2019-04-01T00:19:03.303Z,22.9385
2019-04-01T00:20:07.217Z,22.9091
2019-04-01T00:21:10.207Z,22.9225
2019-04-01T00:22:13.187Z,22.8824
2019-04-01T00:23:16.187Z,22.8824
2019-04-01T00:24:19.195Z,22.8958
2019-04-01T00:25:22.197Z,22.8958
2019-04-01T00:26:25.187Z,22.8664
2019-04-01T00:27:28.193Z,22.8664
2019-04-01T00:28:31.234Z,22.9225
2019-04-01T00:29:34.202Z,22.8824
2019-04-01T00:30:37.194Z,22.8664
2019-04-01T00:31:40.200Z,22.8824
2019-04-01T00:32:43.196Z,22.8664
2019-04-01T00:33:46.231Z,22.8531
2019-04-01T00:34:49.197Z,22.8263
2019-04-01T00:35:52.203Z,22.8531
2019-04-01T00:36:55.204Z,22.8263
2019-04-01T00:37:58.202Z,22.8263
2019-04-01T00:39:01.245Z,22.8531
2019-04-01T00:40:04.189Z,22.8664
2019-04-01T00:41:07.192Z,22.8103
2019-04-01T00:42:10.214Z,22.8263
2019-04-01T00:43:13.199Z,22.8263
2019-04-01T00:44:16.199Z,22.8103
2019-04-01T00:45:19.198Z,22.8103
2019-04-01T00:46:22.211Z,22.8103
2019-04-01T00:47:25.207Z,22.7703
2019-04-01T00:48:28.190Z,22.8103
2019-04-01T00:49:31.190Z,22.7970
2019-04-01T00:50:34.209Z,22.7703
2019-04-01T00:51:37.205Z,22.7409
2019-04-01T00:52:40.208Z,22.7409
2019-04-01T00:53:43.207Z,22.7275
2019-04-01T00:54:46.209Z,22.7542
2019-04-01T00:55:49.217Z,22.7275
2019-04-01T00:56:52.206Z,22.7409
2019-04-01T00:57:55.194Z,22.7970
2019-04-01T00:58:58.205Z,22.7542
2019-04-01T01:00:01.248Z,22.7542
2019-04-01T01:01:04.205Z,22.7542
2019-04-01T01:02:07.204Z,22.7542
2019-04-01T01:03:10.197Z,22.7409
2019-04-01T01:04:13.214Z,22.7115
2019-04-01T01:05:16.210Z,22.7409
2019-04-01T01:06:19.209Z,22.7409
2019-04-01T01:07:22.202Z,22.7409
2019-04-01T01:08:25.212Z,22.7115
2019-04-01T01:09:28.210Z,22.7275
2019-04-01T01:10:31.202Z,22.7409
2019-04-01T01:11:34.207Z,22.7542
2019-04-01T01:12:37.188Z,22.7115
2019-04-01T01:13:40.207Z,22.7542
2019-04-01T01:14:43.193Z,22.7115
2019-04-01T01:15:46.195Z,22.6982
2019-04-01T01:16:49.209Z,22.6848
2019-04-01T01:17:52.199Z,22.7275
2019-04-01T01:18:55.207Z,22.6848
2019-04-01T01:19:58.196Z,22.7115
2019-04-01T01:21:01.206Z,22.6421
2019-04-01T01:22:04.204Z,22.6287
2019-04-01T01:23:07.213Z,22.6421
2019-04-01T01:24:10.196Z,22.6554
2019-04-01T01:25:13.211Z,22.6715
2019-04-01T01:26:16.196Z,22.6287
2019-04-01T01:27:19.205Z,22.6154
2019-04-01T01:28:22.206Z,22.6154
2019-04-01T01:29:25.190Z,22.5860
2019-04-01T01:30:28.195Z,22.6287
2019-04-01T01:31:31.201Z,22.6154
2019-04-01T01:32:34.204Z,22.5994
2019-04-01T01:33:37.189Z,22.6421
2019-04-01T01:34:40.210Z,22.5727
2019-04-01T01:35:43.211Z,22.5994
2019-04-01T01:36:46.219Z,22.5860
2019-04-01T01:37:49.211Z,22.5860
2019-04-01T01:38:52.272Z,22.5860
2019-04-01T01:39:55.193Z,22.5994
2019-04-01T01:40:58.210Z,22.5727
2019-04-01T01:42:01.208Z,22.5727
2019-04-01T01:43:04.219Z,22.5540
2019-04-01T01:44:07.206Z,22.5860
2019-04-01T01:45:10.195Z,22.5860
2019-04-01T01:46:13.213Z,22.5860
2019-04-01T01:47:16.196Z,22.5727
2019-04-01T01:48:19.203Z,22.5139
2019-04-01T01:49:22.193Z,22.5273
2019-04-01T01:50:25.194Z,22.4979
2019-04-01T01:51:28.205Z,22.5273
2019-04-01T01:52:31.194Z,22.5540
2019-04-01T01:53:34.200Z,22.5406
2019-04-01T01:54:37.207Z,22.5540
2019-04-01T01:55:40.193Z,22.6154
2019-04-01T01:56:43.192Z,22.4979
2019-04-01T01:57:46.203Z,22.5273
2019-04-01T01:58:49.190Z,22.5139
2019-04-01T01:59:52.191Z,22.5273
2019-04-01T02:00:55.193Z,22.5139
2019-04-01T02:01:58.229Z,22.5273
2019-04-01T02:03:01.193Z,22.4712
2019-04-01T02:04:04.198Z,22.4712
2019-04-01T02:05:07.183Z,22.4846
2019-04-01T02:06:10.197Z,22.4979
2019-04-01T02:07:13.216Z,22.4712
2019-04-01T02:08:16.195Z,22.4846
2019-04-01T02:09:19.193Z,22.4578
2019-04-01T02:10:22.205Z,22.5139
2019-04-01T02:11:25.284Z,22.4578
2019-04-01T02:12:28.224Z,22.4418
2019-04-01T02:13:31.207Z,22.4712
2019-04-01T02:14:34.197Z,22.4578
2019-04-01T02:15:44.730Z,22.4418
2019-04-01T02:16:47.207Z,22.4151
2019-04-01T02:17:50.211Z,22.4151
2019-04-01T02:18:53.187Z,22.4418
2019-04-01T02:19:56.188Z,22.4151
2019-04-01T02:20:59.200Z,22.4418
2019-04-01T02:22:02.185Z,22.4151
2019-04-01T02:23:05.197Z,22.3724
2019-04-01T02:24:08.201Z,22.4151
2019-04-01T02:25:11.205Z,22.3590
2019-04-01T02:26:14.186Z,22.3857
2019-04-01T02:27:17.196Z,22.3857
2019-04-01T02:28:20.202Z,22.3857
2019-04-01T02:29:23.209Z,22.4018
2019-04-01T02:30:26.192Z,22.3857
2019-04-01T02:31:29.207Z,22.3857
2019-04-01T02:32:32.190Z,22.3857
2019-04-01T02:33:35.205Z,22.3857
2019-04-01T02:34:38.195Z,22.4285
2019-04-01T02:35:41.205Z,22.3857
2019-04-01T02:36:44.194Z,22.3457
2019-04-01T02:37:47.180Z,22.3724
2019-04-01T02:38:50.206Z,22.3590
2019-04-01T02:39:53.193Z,22.3297
2019-04-01T02:40:56.195Z,22.3297
2019-04-01T02:41:59.204Z,22.3297
2019-04-01T02:43:02.210Z,22.3297
2019-04-01T02:44:05.214Z,22.3457
2019-04-01T02:45:08.209Z,22.3297
2019-04-01T02:46:11.212Z,22.3297
2019-04-01T02:47:14.197Z,22.2869
2019-04-01T02:48:17.207Z,22.2736
2019-04-01T02:49:20.209Z,22.2736
2019-04-01T02:50:23.186Z,22.3030
2019-04-01T02:51:26.211Z,22.3030
2019-04-01T02:52:29.208Z,22.3030
2019-04-01T02:53:32.202Z,22.2736
2019-04-01T02:54:35.214Z,22.3030
2019-04-01T02:55:38.211Z,22.2602
2019-04-01T02:56:41.189Z,22.2869
2019-04-01T02:57:44.211Z,22.2602
2019-04-01T02:58:47.196Z,22.2736
2019-04-01T02:59:50.197Z,22.2469
2019-04-01T03:00:53.215Z,22.2602
2019-04-01T03:01:56.192Z,22.2736
2019-04-01T03:02:59.205Z,22.2602
2019-04-01T03:04:02.227Z,22.2602
2019-04-01T03:05:05.207Z,22.3030
2019-04-01T03:06:08.203Z,22.2602
2019-04-01T03:07:11.211Z,22.2309
2019-04-01T03:08:14.213Z,22.2469
2019-04-01T03:09:17.197Z,22.2736
2019-04-01T03:10:20.213Z,22.2309
2019-04-01T03:11:23.201Z,22.2469
2019-04-01T03:12:26.191Z,22.2309
2019-04-01T03:13:29.204Z,22.2469
2019-04-01T03:14:32.218Z,22.2042
2019-04-01T03:15:35.208Z,22.2309
2019-04-01T03:16:38.193Z,22.2042
2019-04-01T03:17:41.221Z,22.2175
2019-04-01T03:18:44.204Z,22.2042
2019-04-01T03:19:47.211Z,22.2175
2019-04-01T03:20:50.205Z,22.1748
2019-04-01T03:21:53.207Z,22.1748
2019-04-01T03:22:56.197Z,22.1908
2019-04-01T03:23:59.227Z,22.1748
2019-04-01T03:25:02.192Z,22.1481
2019-04-01T03:26:05.224Z,22.1481
2019-04-01T03:27:08.217Z,22.1347
2019-04-01T03:28:11.209Z,22.1481
2019-04-01T03:29:14.207Z,22.1187
2019-04-01T03:30:17.386Z,22.1054
2019-04-01T03:31:20.205Z,22.1347
2019-04-01T03:32:23.211Z,22.1187
2019-04-01T03:33:26.239Z,22.0920
2019-04-01T03:34:29.193Z,22.1347
2019-04-01T03:35:32.223Z,22.0760
2019-04-01T03:36:35.239Z,22.1054
2019-04-01T03:37:38.212Z,22.0600
2019-04-01T03:38:41.197Z,22.1347
2019-04-01T03:39:44.210Z,22.0920
2019-04-01T03:40:47.194Z,22.0920
2019-04-01T03:41:50.199Z,22.0760
2019-04-01T03:42:53.213Z,22.0920
2019-04-01T03:43:56.193Z,22.0466
2019-04-01T03:44:59.221Z,22.0466
2019-04-01T03:46:02.224Z,22.0466
2019-04-01T03:47:05.216Z,22.0172
2019-04-01T03:48:08.196Z,22.0039
2019-04-01T03:49:11.202Z,22.0333
2019-04-01T03:50:14.191Z,22.0039
2019-04-01T03:51:17.192Z,22.0172
2019-04-01T03:52:20.192Z,22.0466
2019-04-01T03:53:23.200Z,22.0333
2019-04-01T03:54:26.199Z,22.0600
2019-04-01T03:55:29.352Z,21.9905
2019-04-01T03:56:32.200Z,22.0333
2019-04-01T03:57:35.211Z,22.0333
2019-04-01T03:58:38.201Z,22.0039
2019-04-01T03:59:41.206Z,22.0172
2019-04-01T04:00:44.219Z,22.0172
2019-04-01T04:01:47.199Z,21.9905
2019-04-01T04:02:50.211Z,21.9772
2019-04-01T04:03:53.205Z,22.0039
2019-04-01T04:04:56.206Z,22.0172
2019-04-01T04:05:59.220Z,21.9612
2019-04-01T04:07:02.221Z,22.0039
2019-04-01T04:08:05.208Z,21.9612
2019-04-01T04:09:08.203Z,21.9772
2019-04-01T04:10:11.211Z,21.9211
2019-04-01T04:11:14.207Z,21.9772
2019-04-01T04:12:17.202Z,21.9478
2019-04-01T04:13:20.195Z,21.9612
2019-04-01T04:14:23.211Z,21.9612
2019-04-01T04:15:26.199Z,21.9478
2019-04-01T04:16:29.192Z,21.9772
2019-04-01T04:17:32.196Z,21.9772
2019-04-01T04:18:35.204Z,21.9612
2019-04-01T04:19:38.212Z,21.9345
2019-04-01T04:20:41.208Z,21.9345
2019-04-01T04:21:44.211Z,21.9211
2019-04-01T04:22:47.192Z,21.9051
2019-04-01T04:23:50.202Z,21.9051
2019-04-01T04:24:53.208Z,21.9478
2019-04-01T04:25:56.214Z,21.9051
2019-04-01T04:26:59.212Z,21.9772
2019-04-01T04:28:02.204Z,21.9772
2019-04-01T04:29:05.229Z,21.9478
2019-04-01T04:30:08.190Z,21.9478
2019-04-01T04:31:11.194Z,21.9478
2019-04-01T04:32:14.211Z,21.9612
2019-04-01T04:33:17.206Z,21.9345
2019-04-01T04:34:20.218Z,21.9211
2019-04-01T04:35:23.204Z,21.9478
2019-04-01T04:36:26.214Z,21.9772
2019-04-01T04:37:29.210Z,21.9051
2019-04-01T04:38:32.202Z,21.8784
2019-04-01T04:39:35.208Z,21.8784
2019-04-01T04:40:40.849Z,21.9211
2019-04-01T04:41:44.205Z,21.8917
2019-04-01T04:42:47.191Z,21.8917
2019-04-01T04:43:50.209Z,21.9051
2019-04-01T04:44:53.193Z,21.8624
2019-04-01T04:45:56.205Z,21.8357
2019-04-01T04:46:59.208Z,21.8357
2019-04-01T04:48:02.217Z,21.8624
2019-04-01T04:49:05.208Z,21.8223
2019-04-01T04:50:08.200Z,21.8784
2019-04-01T04:51:11.213Z,21.9345
2019-04-01T04:52:14.198Z,21.8917
2019-04-01T04:53:17.197Z,21.8624
2019-04-01T04:54:20.204Z,21.8624
2019-04-01T04:55:23.211Z,21.8624
2019-04-01T04:56:26.194Z,21.9051
2019-04-01T04:57:29.191Z,21.8784
2019-04-01T04:58:32.197Z,21.8490
2019-04-01T04:59:35.201Z,21.8357
2019-04-01T05:00:38.222Z,21.8357
2019-04-01T05:01:41.199Z,21.8784
2019-04-01T05:02:44.212Z,21.8917
2019-04-01T05:03:47.206Z,21.9211
2019-04-01T05:04:50.221Z,21.9051
2019-04-01T05:05:53.207Z,21.9051
2019-04-01T05:06:56.189Z,21.9211
2019-04-01T05:07:59.201Z,21.9051
2019-04-01T05:09:02.205Z,21.8917
2019-04-01T05:10:05.269Z,21.9478
2019-04-01T05:11:08.194Z,21.9345
2019-04-01T05:12:11.210Z,21.9478
2019-04-01T05:13:14.187Z,21.9612
2019-04-01T05:14:17.222Z,21.9612
2019-04-01T05:15:20.204Z,21.9345
2019-04-01T05:16:23.205Z,21.9478
2019-04-01T05:17:26.189Z,21.9345
2019-04-01T05:18:29.204Z,21.9211
2019-04-01T05:19:32.235Z,21.9772
2019-04-01T05:20:35.195Z,21.9905
2019-04-01T05:21:38.201Z,21.9772
2019-04-01T05:22:41.211Z,22.0600
2019-04-01T05:23:44.203Z,22.0760
2019-04-01T05:24:47.232Z,22.0760
2019-04-01T05:25:50.193Z,22.0172
2019-04-01T05:27:01.185Z,22.0760
2019-04-01T05:28:12.865Z,22.0172
2019-04-01T05:29:24.181Z,22.0466
2019-04-01T05:30:27.185Z,22.0600
2019-04-01T05:31:30.189Z,22.0760
2019-04-01T05:32:33.194Z,22.0466
2019-04-01T05:33:36.190Z,22.0466
2019-04-01T05:34:39.193Z,22.0760
2019-04-01T05:35:42.198Z,22.0172
2019-04-01T05:36:45.202Z,22.0600
2019-04-01T05:37:48.189Z,22.0920
2019-04-01T05:38:51.187Z,22.0600
2019-04-01T05:39:54.195Z,22.0920
2019-04-01T05:40:57.196Z,22.0760
2019-04-01T05:42:00.192Z,22.0920
2019-04-01T05:43:03.199Z,22.0760
2019-04-01T05:44:06.212Z,22.0760
2019-04-01T05:45:09.193Z,22.1054
2019-04-01T05:46:12.200Z,22.0920
2019-04-01T05:47:15.207Z,22.0466
2019-04-01T05:48:18.195Z,22.0600
2019-04-01T05:49:21.201Z,22.0920
2019-04-01T05:50:24.212Z,22.1614
2019-04-01T05:51:27.192Z,22.0920
2019-04-01T05:52:30.213Z,22.1054
2019-04-01T05:53:33.195Z,22.1187
2019-04-01T05:54:36.198Z,22.1481
2019-04-01T05:55:39.206Z,22.0760
2019-04-01T05:56:42.197Z,22.1187
2019-04-01T05:57:45.201Z,22.1481
2019-04-01T05:58:48.202Z,22.1614
2019-04-01T05:59:51.211Z,22.1614
2019-04-01T06:00:54.188Z,22.1187
2019-04-01T06:01:57.225Z,22.1748
2019-04-01T06:03:00.205Z,22.1614
2019-04-01T06:04:03.190Z,22.1347
2019-04-01T06:05:06.205Z,22.1481
2019-04-01T06:06:09.201Z,22.1347
2019-04-01T06:07:12.206Z,22.1614
2019-04-01T06:08:15.213Z,22.1614
2019-04-01T06:09:18.199Z,22.1347
2019-04-01T06:10:21.210Z,22.1748
2019-04-01T06:11:24.214Z,22.2042
2019-04-01T06:12:27.217Z,22.1054
2019-04-01T06:13:30.193Z,22.1054
2019-04-01T06:14:33.203Z,22.1748
2019-04-01T06:15:36.209Z,22.1748
2019-04-01T06:16:39.204Z,22.2175
2019-04-01T06:17:42.222Z,22.1748
2019-04-01T06:18:45.207Z,22.1481
2019-04-01T06:19:48.197Z,22.1187
2019-04-01T06:20:51.207Z,22.1347
2019-04-01T06:21:54.212Z,22.1748
2019-04-01T06:22:57.192Z,22.2175
2019-04-01T06:24:00.210Z,22.1347
2019-04-01T06:25:03.213Z,22.2309
2019-04-01T06:26:06.212Z,22.1908
2019-04-01T06:27:09.188Z,22.1748
2019-04-01T06:28:12.212Z,22.1748
2019-04-01T06:29:15.188Z,22.1347
2019-04-01T06:30:18.211Z,22.1748
2019-04-01T06:31:21.258Z,22.1748
2019-04-01T06:32:24.197Z,22.1614
2019-04-01T06:33:27.193Z,22.1481
2019-04-01T06:34:30.202Z,22.2309
2019-04-01T06:35:33.225Z,22.1614
2019-04-01T06:36:38.824Z,22.2042
2019-04-01T06:37:42.219Z,22.1748
2019-04-01T06:38:45.206Z,22.1748
2019-04-01T06:39:48.192Z,22.1614
2019-04-01T06:40:51.256Z,22.1748
2019-04-01T06:41:54.185Z,22.1187
2019-04-01T06:42:57.197Z,22.2042
2019-04-01T06:44:00.201Z,22.2175
2019-04-01T06:45:03.226Z,22.1748
2019-04-01T06:46:06.211Z,22.2175
2019-04-01T06:47:09.200Z,22.2175
2019-04-01T06:48:12.207Z,22.1908
2019-04-01T06:49:15.184Z,22.1748
2019-04-01T06:50:18.189Z,22.2042
2019-04-01T06:51:21.203Z,22.2175
2019-04-01T06:52:24.205Z,22.2309
2019-04-01T06:53:27.220Z,22.2469
2019-04-01T06:54:30.210Z,22.2175
2019-04-01T06:55:33.187Z,22.3030
2019-04-01T06:56:36.199Z,22.3297
2019-04-01T06:57:39.200Z,22.2736
2019-04-01T06:58:42.219Z,22.1908
2019-04-01T06:59:45.193Z,22.2469
2019-04-01T07:00:48.207Z,22.2602
2019-04-01T07:01:51.185Z,22.2736
2019-04-01T07:02:54.190Z,22.2602
2019-04-01T07:03:57.200Z,22.2869
2019-04-01T07:05:00.399Z,22.2602
2019-04-01T07:06:03.198Z,22.3163
2019-04-01T07:07:18.315Z,22.2869
2019-04-01T07:08:15.181Z,22.3163
2019-04-01T07:09:18.202Z,22.3457
2019-04-01T07:10:24.607Z,22.3457
2019-04-01T07:11:28.218Z,22.3030
2019-04-01T07:12:31.195Z,22.2736
2019-04-01T07:13:34.189Z,22.3030
2019-04-01T07:14:37.196Z,22.3030
2019-04-01T07:15:40.187Z,22.3590
2019-04-01T07:16:43.193Z,22.2869
2019-04-01T07:17:46.201Z,22.2869
2019-04-01T07:18:49.190Z,22.3857
2019-04-01T07:19:52.229Z,22.2869
2019-04-01T07:20:55.200Z,22.3030
2019-04-01T07:21:58.209Z,22.3297
2019-04-01T07:23:01.191Z,22.3163
2019-04-01T07:24:04.272Z,22.3297
2019-04-01T07:25:07.211Z,22.3857
2019-04-01T07:26:10.188Z,22.3030
2019-04-01T07:27:13.220Z,22.3030
2019-04-01T07:28:16.199Z,22.3163
2019-04-01T07:29:19.206Z,22.3163
2019-04-01T07:30:22.252Z,22.3030
2019-04-01T07:31:25.260Z,22.3297
2019-04-01T07:32:28.191Z,22.3457
2019-04-01T07:33:31.197Z,22.3724
2019-04-01T07:34:34.195Z,22.3457
2019-04-01T07:35:37.217Z,22.3297
2019-04-01T07:36:40.201Z,22.3163
2019-04-01T07:37:43.211Z,22.3163
2019-04-01T07:38:46.202Z,22.3297
2019-04-01T07:39:49.186Z,22.3163
2019-04-01T07:40:52.203Z,22.3297
2019-04-01T07:41:55.217Z,22.3030
2019-04-01T07:42:58.304Z,22.3724
2019-04-01T07:44:01.187Z,22.3857
2019-04-01T07:45:04.203Z,22.3590
2019-04-01T07:46:08.306Z,22.3724
2019-04-01T07:47:11.205Z,22.3590
2019-04-01T07:48:14.187Z,22.4418
2019-04-01T07:49:17.221Z,22.4712
2019-04-01T07:50:20.201Z,22.3297
2019-04-01T07:51:23.199Z,22.2869
2019-04-01T07:52:26.215Z,22.3030
2019-04-01T07:53:29.199Z,22.2602
2019-04-01T07:54:32.940Z,22.2309
2019-04-01T07:55:36.205Z,22.0760
2019-04-01T07:56:39.192Z,22.0172
2019-04-01T07:57:42.203Z,21.9772
2019-04-01T07:58:45.209Z,21.9612
2019-04-01T07:59:48.189Z,21.9211
2019-04-01T08:00:51.220Z,21.9051
2019-04-01T08:01:54.203Z,21.8917
2019-04-01T08:02:57.192Z,21.8223
2019-04-01T08:04:00.197Z,21.8490
2019-04-01T08:05:03.213Z,21.8063
2019-04-01T08:06:06.211Z,21.8063
2019-04-01T08:07:09.198Z,21.8357
2019-04-01T08:08:12.198Z,21.7502
2019-04-01T08:09:15.213Z,21.7102
2019-04-01T08:10:18.198Z,21.7102
2019-04-01T08:11:21.218Z,21.7502
2019-04-01T08:12:27.648Z,21.7502
2019-04-01T08:13:31.199Z,21.6514
2019-04-01T08:14:34.213Z,21.6941
2019-04-01T08:15:37.195Z,21.6941
2019-04-01T08:16:40.213Z,21.6674
2019-04-01T08:17:43.195Z,21.6674
2019-04-01T08:18:46.200Z,21.5660
2019-04-01T08:19:49.186Z,21.6381
2019-04-01T08:20:52.191Z,21.6674
2019-04-01T08:21:55.222Z,21.6247
2019-04-01T08:22:58.210Z,21.6674
2019-04-01T08:24:01.187Z,21.6674
2019-04-01T08:25:04.192Z,21.6808
2019-04-01T08:26:07.197Z,21.6381
2019-04-01T08:27:10.225Z,21.5820
2019-04-01T08:28:13.208Z,21.5660
2019-04-01T08:29:29.571Z,21.4965
2019-04-01T08:30:25.208Z,21.5232
2019-04-01T08:31:28.193Z,21.6514
2019-04-01T08:32:31.204Z,21.6941
2019-04-01T08:33:34.185Z,21.6674
2019-04-01T08:34:37.211Z,21.7929
2019-04-01T08:35:40.207Z,21.8357
2019-04-01T08:36:43.207Z,21.8063
2019-04-01T08:37:46.218Z,21.9051
2019-04-01T08:38:49.201Z,21.9612
2019-04-01T08:39:52.205Z,22.0039
2019-04-01T08:40:55.268Z,22.0466
2019-04-01T08:41:58.188Z,22.0466
2019-04-01T08:43:01.197Z,22.0760
2019-04-01T08:44:04.185Z,22.1054
2019-04-01T08:45:07.189Z,22.1347
2019-04-01T08:46:10.188Z,22.1614
2019-04-01T08:47:13.192Z,22.2309
2019-04-01T08:48:16.228Z,22.1908
2019-04-01T08:49:19.207Z,22.2869
2019-04-01T08:50:22.200Z,22.2736
2019-04-01T08:51:25.186Z,22.3030
2019-04-01T08:52:28.192Z,22.3030
2019-04-01T08:53:31.231Z,22.3030
2019-04-01T08:54:34.190Z,22.3457
2019-04-01T08:55:37.193Z,22.3297
2019-04-01T08:56:40.207Z,22.3590
2019-04-01T08:57:43.198Z,22.3590
2019-04-01T08:58:46.214Z,22.3724
2019-04-01T08:59:49.205Z,22.3724
2019-04-01T09:00:52.201Z,22.4285
2019-04-01T09:01:55.197Z,22.4151
2019-04-01T09:02:58.204Z,22.4418
2019-04-01T09:04:01.209Z,22.4151
2019-04-01T09:05:04.185Z,22.4578
2019-04-01T09:06:07.298Z,22.4418
2019-04-01T09:07:10.211Z,22.4578
2019-04-01T09:08:13.186Z,22.4578
2019-04-01T09:09:16.203Z,22.4846
2019-04-01T09:10:19.191Z,22.5139
2019-04-01T09:11:22.192Z,22.5273
2019-04-01T09:12:25.205Z,22.5139
2019-04-01T09:13:28.203Z,22.5406
2019-04-01T09:14:31.212Z,22.5139
2019-04-01T09:15:34.200Z,22.4979
2019-04-01T09:16:37.199Z,22.5273
2019-04-01T09:17:40.739Z,22.5406
2019-04-01T09:18:43.207Z,22.5540
2019-04-01T09:19:46.193Z,22.5860
2019-04-01T09:20:49.198Z,22.5860
2019-04-01T09:21:52.208Z,22.5994
2019-04-01T09:22:55.194Z,22.5994
2019-04-01T09:23:58.207Z,22.5994
2019-04-01T09:25:01.201Z,22.6715
2019-04-01T09:26:04.217Z,22.6848
2019-04-01T09:27:07.256Z,22.6848
2019-04-01T09:28:10.192Z,22.6554
2019-04-01T09:29:13.201Z,22.6421
2019-04-01T09:30:18.704Z,22.6287
2019-04-01T09:31:22.201Z,22.6715
2019-04-01T09:32:25.218Z,22.6287
2019-04-01T09:33:28.196Z,22.6554
2019-04-01T09:34:31.223Z,22.6848
2019-04-01T09:35:34.207Z,22.6982
2019-04-01T09:36:37.214Z,22.6982
2019-04-01T09:37:40.240Z,22.7409
2019-04-01T09:38:43.205Z,22.6982
2019-04-01T09:39:46.210Z,22.6848
2019-04-01T09:40:49.198Z,22.7542
2019-04-01T09:41:52.216Z,22.7275
2019-04-01T09:42:55.197Z,22.7275
2019-04-01T09:43:58.198Z,22.7115
2019-04-01T09:45:01.284Z,22.7275
2019-04-01T09:46:04.228Z,22.7409
2019-04-01T09:47:07.228Z,22.7703
2019-04-01T09:48:10.221Z,22.8103
2019-04-01T09:49:13.212Z,22.7703
2019-04-01T09:50:16.229Z,22.7836
2019-04-01T09:51:19.197Z,22.7836
2019-04-01T09:52:22.202Z,22.8263
2019-04-01T09:53:25.212Z,22.8531
2019-04-01T09:54:28.205Z,22.8531
2019-04-01T09:55:31.198Z,22.8664
2019-04-01T09:56:34.223Z,22.8397
2019-04-01T09:57:37.201Z,22.8397
2019-04-01T09:58:40.211Z,22.8531
2019-04-01T09:59:43.190Z,22.8263
2019-04-01T10:00:46.227Z,22.8397
2019-04-01T10:01:49.221Z,22.8958
2019-04-01T10:02:52.214Z,22.9225
2019-04-01T10:03:55.206Z,22.9091
2019-04-01T10:04:58.213Z,22.8824
2019-04-01T10:06:01.208Z,22.9519
2019-04-01T10:07:04.371Z,22.9091
2019-04-01T10:08:07.211Z,22.9385
2019-04-01T10:09:10.203Z,22.9091
2019-04-01T10:10:13.243Z,22.9652
2019-04-01T10:11:16.225Z,22.9091
2019-04-01T10:12:19.210Z,22.9225
2019-04-01T10:13:22.190Z,22.9385
2019-04-01T10:14:25.213Z,22.9091
2019-04-01T10:15:28.195Z,22.9519
2019-04-01T10:16:31.197Z,22.9385
2019-04-01T10:17:34.209Z,22.9385
2019-04-01T10:18:37.197Z,22.9385
2019-04-01T10:19:40.198Z,22.9385
2019-04-01T10:20:43.208Z,22.9786
2019-04-01T10:21:46.202Z,23.0373
2019-04-01T10:22:49.184Z,23.0507
2019-04-01T10:23:52.205Z,23.0213
2019-04-01T10:24:55.209Z,23.0213
2019-04-01T10:25:58.192Z,23.0507
2019-04-01T10:27:01.213Z,23.0507
2019-04-01T10:28:04.190Z,23.0373
2019-04-01T10:29:07.208Z,23.0667
2019-04-01T10:30:10.206Z,23.0079
2019-04-01T10:31:13.194Z,23.0373
2019-04-01T10:32:16.203Z,23.0800
2019-04-01T10:33:19.205Z,23.0507
2019-04-01T10:34:22.196Z,23.0800
2019-04-01T10:35:25.205Z,23.0800
2019-04-01T10:36:28.185Z,23.0961
2019-04-01T10:37:31.183Z,23.0961
2019-04-01T10:38:34.198Z,23.1228
2019-04-01T10:39:37.194Z,23.1361
2019-04-01T10:40:40.199Z,23.1094
2019-04-01T10:41:43.215Z,23.1094
2019-04-01T10:42:46.197Z,23.1228
2019-04-01T10:43:49.201Z,23.1521
2019-04-01T10:44:52.216Z,23.2082
2019-04-01T10:45:55.206Z,23.1655
2019-04-01T10:46:58.200Z,23.1788
2019-04-01T10:48:01.262Z,23.2082
2019-04-01T10:49:04.222Z,23.2643
2019-04-01T10:50:07.227Z,23.1949
2019-04-01T10:51:10.206Z,23.1949
2019-04-01T10:52:13.289Z,23.1788
2019-04-01T10:53:16.278Z,23.2082
2019-04-01T10:54:19.273Z,23.2082
2019-04-01T10:55:22.224Z,23.1788
2019-04-01T10:56:25.247Z,23.2216
2019-04-01T10:57:28.243Z,23.2776
2019-04-01T10:58:31.241Z,23.2643
2019-04-01T10:59:34.300Z,23.2509
2019-04-01T11:00:37.252Z,23.2643
2019-04-01T11:01:40.302Z,23.2509
2019-04-01T11:02:43.234Z,23.2776
2019-04-01T11:03:46.245Z,23.3337
2019-04-01T11:04:49.240Z,23.3471
2019-04-01T11:05:52.247Z,23.3631
2019-04-01T11:06:55.206Z,23.3337
2019-04-01T11:07:58.233Z,23.2509
2019-04-01T11:09:01.235Z,23.3471
2019-04-01T11:10:04.200Z,23.3337
2019-04-01T11:11:07.202Z,23.3471
2019-04-01T11:12:10.228Z,23.3631
2019-04-01T11:13:13.221Z,23.3070
2019-04-01T11:14:16.222Z,23.3631
2019-04-01T11:15:20.027Z,23.3337
2019-04-01T11:16:23.195Z,23.3337
2019-04-01T11:17:26.209Z,23.3764
2019-04-01T11:18:29.207Z,23.3337
2019-04-01T11:19:32.217Z,23.3898
2019-04-01T11:20:35.216Z,23.3471
2019-04-01T11:21:38.203Z,23.3764
2019-04-01T11:22:41.200Z,23.3764
2019-04-01T11:23:44.189Z,23.4752
2019-04-01T11:24:47.200Z,23.4192
2019-04-01T11:25:50.203Z,23.4192
2019-04-01T11:26:53.214Z,23.4192
2019-04-01T11:27:56.219Z,23.4886
2019-04-01T11:28:59.197Z,23.4886
2019-04-01T11:30:02.210Z,23.5313
2019-04-01T11:31:05.240Z,23.4619
2019-04-01T11:32:08.197Z,23.4192
2019-04-01T11:33:11.245Z,23.4752
2019-04-01T11:34:14.343Z,23.4325
2019-04-01T11:35:17.359Z,23.4886
2019-04-01T11:36:20.253Z,23.5019
2019-04-01T11:37:23.246Z,23.4886
2019-04-01T11:38:26.218Z,23.4192
2019-04-01T11:39:29.230Z,23.5019
2019-04-01T11:40:32.227Z,23.4752
2019-04-01T11:41:35.287Z,23.5019
2019-04-01T11:42:40.354Z,23.5019
2019-04-01T11:43:44.249Z,23.4459
2019-04-01T11:44:47.218Z,23.4031
2019-04-01T11:45:50.213Z,23.3471
2019-04-01T11:46:53.520Z,23.4031
2019-04-01T11:47:56.246Z,23.4619
2019-04-01T11:48:59.249Z,23.3898
2019-04-01T11:50:02.248Z,23.4325
2019-04-01T11:51:05.301Z,23.5767
2019-04-01T11:52:08.894Z,23.5019
2019-04-01T11:53:12.234Z,23.4886
2019-04-01T11:54:15.200Z,23.5447
2019-04-01T11:55:18.198Z,23.5313
2019-04-01T11:56:21.210Z,23.5313
2019-04-01T11:57:24.252Z,23.6034
2019-04-01T11:58:27.192Z,23.5767
2019-04-01T11:59:30.198Z,23.6194
2019-04-01T12:00:33.222Z,23.6328
2019-04-01T12:01:36.883Z,23.6328
2019-04-01T12:02:40.209Z,23.6328
2019-04-01T12:03:43.221Z,23.5767
2019-04-01T12:04:46.210Z,23.6194
2019-04-01T12:05:49.215Z,23.6034
2019-04-01T12:06:52.221Z,23.6194
2019-04-01T12:07:55.212Z,23.6194
2019-04-01T12:08:59.021Z,23.5767
2019-04-01T12:10:02.213Z,23.5580
2019-04-01T12:11:05.191Z,23.5767
2019-04-01T12:12:22.420Z,23.5019
2019-04-01T12:13:17.194Z,23.5019
2019-04-01T12:14:20.194Z,23.4752
2019-04-01T12:15:23.206Z,23.3471
2019-04-01T12:16:26.195Z,23.3764
2019-04-01T12:17:29.216Z,23.3898
2019-04-01T12:18:32.214Z,23.4192
2019-04-01T12:19:35.206Z,23.3204
2019-04-01T12:20:38.311Z,23.1361
2019-04-01T12:21:41.557Z,23.2082
2019-04-01T12:22:45.988Z,23.1521
2019-04-01T12:23:49.209Z,23.1228
2019-04-01T12:24:52.192Z,23.1361
2019-04-01T12:25:55.199Z,23.0800
2019-04-01T12:26:58.213Z,23.2349
2019-04-01T12:28:01.209Z,23.2643
2019-04-01T12:29:04.217Z,23.2910
2019-04-01T12:30:07.201Z,23.2643
2019-04-01T12:31:12.746Z,23.2776
2019-04-01T12:32:16.217Z,23.2082
2019-04-01T12:33:19.206Z,23.1228
2019-04-01T12:34:22.183Z,23.0507
2019-04-01T12:35:25.187Z,23.1521
2019-04-01T12:36:28.221Z,23.1788
2019-04-01T12:37:31.223Z,23.0961
2019-04-01T12:38:34.203Z,23.1655
2019-04-01T12:39:37.198Z,23.1788
2019-04-01T12:40:40.212Z,23.1361
2019-04-01T12:41:43.196Z,23.1521
2019-04-01T12:42:46.648Z,23.1228